Time;durP1;ratioP1;P1;durP2;ratioP2;P2;SDS_P1;SDS_P2;PMS_P1;PMS_P2;Temp;Humidity;BMP_temperature;BMP_pressure;BME280_temperature;BME280_humidity;BME280_pressure;Samples;Min_cycle;Max_cycle;Signal;HPM_P1;HPM_P2
2024/02/03 00:02:19;;;;;;;;;;;;;;;24.77;22.67;98183.41;5098932;28;19931;-80
2024/02/03 00:04:45;;;;;;;;;;;;;;;25.11;22.45;98178.22;5102328;27;20365;-80
2024/02/03 00:07:11;;;;;;;;;;;;;;;26.00;21.46;98180.28;5104030;28;19966;-79
2024/02/03 00:09:37;;;;;;;;;;;;;;;25.22;22.24;98179.53;5098556;27;20010;-79
2024/02/03 00:12:04;;;;;;;;;;;;;;;23.28;24.27;98183.53;5108544;28;19932;-80
2024/02/03 00:14:30;;;;;;;;;;;;;;;23.69;24.42;98183.22;5105009;27;19919;-80
2024/02/03 00:16:56;;;;;;;;;;;;;;;24.78;22.64;98173.78;5104550;27;19920;-80
2024/02/03 00:19:22;;;;;;;;;;;;;;;25.32;22.04;98181.25;5114304;27;20300;-80
2024/02/03 00:21:48;;;;;;;;;;;;;;;25.01;22.46;98180.03;5107308;27;19920;-80
2024/02/03 00:24:14;;;;;;;;;;;;;;;23.18;24.42;98167.69;5098775;28;19931;-80
2024/02/03 00:26:40;;;;;;;;;;;;;;;23.13;24.71;98170.16;5104040;27;19969;-80
2024/02/03 00:29:07;;;;;;;;;;;;;;;22.92;24.87;98176.91;5107229;28;20014;-80
2024/02/03 00:31:33;;;;;;;;;;;;;;;23.14;24.56;98172.56;5101895;27;20446;-80
2024/02/03 00:33:59;;;;;;;;;;;;;;;22.64;25.18;98180.94;5106423;28;20430;-80
2024/02/03 00:36:25;;;;;;;;;;;;;;;22.97;24.88;98187.63;5104672;27;19919;-80
2024/02/03 00:38:51;;;;;;;;;;;;;;;20.94;29.94;98186.72;5105445;27;19980;-79
2024/02/03 00:41:18;;;;;;;;;;;;;;;22.23;25.98;98176.69;5108403;27;19920;-80
2024/02/03 00:43:44;;;;;;;;;;;;;;;23.14;24.81;98175.38;5103313;28;19920;-80
2024/02/03 00:46:11;;;;;;;;;;;;;;;22.24;26.01;98179.06;5110881;27;19964;-79
2024/02/03 00:48:40;;;;;;;;;;;;;;;22.73;25.56;98169.22;5103987;27;19920;-80
2024/02/03 00:51:09;;;;;;;;;;;;;;;21.68;26.80;98176.94;5107073;28;20357;-80
2024/02/03 00:53:36;;;;;;;;;;;;;;;23.18;24.93;98178.09;5102077;27;20393;-80
2024/02/03 00:56:02;;;;;;;;;;;;;;;23.73;24.30;98183.97;5104246;28;19972;-80
2024/02/03 00:58:28;;;;;;;;;;;;;;;21.95;27.69;98184.22;5107822;27;19965;-80
2024/02/03 01:00:54;;;;;;;;;;;;;;;22.76;25.87;98192.75;5100712;28;19926;-80
2024/02/03 01:03:20;;;;;;;;;;;;;;;23.51;24.93;98193.97;5103371;27;20365;-80
2024/02/03 01:05:47;;;;;;;;;;;;;;;22.07;26.89;98190.47;5097542;28;20399;-80
2024/02/03 01:08:13;;;;;;;;;;;;;;;21.72;27.06;98181.28;5101934;27;20460;-80
2024/02/03 01:10:39;;;;;;;;;;;;;;;21.85;27.24;98189.94;5107523;28;19920;-80
2024/02/03 01:13:05;;;;;;;;;;;;;;;21.86;27.41;98202.69;5112576;28;19924;-80
2024/02/03 01:15:31;;;;;;;;;;;;;;;20.83;29.18;98169.28;5104238;28;19920;-79
2024/02/03 01:17:57;;;;;;;;;;;;;;;19.92;31.03;98190.88;5104013;28;19930;-79
2024/02/03 01:20:23;;;;;;;;;;;;;;;20.99;28.54;98180.72;5107472;28;19923;-79
2024/02/03 01:22:49;;;;;;;;;;;;;;;20.73;29.39;98192.47;5093687;28;19930;-80
2024/02/03 01:25:15;;;;;;;;;;;;;;;20.68;29.79;98195.69;5098970;28;19954;-79
2024/02/03 01:27:42;;;;;;;;;;;;;;;20.25;30.10;98181.19;5110650;28;19920;-79
2024/02/03 01:30:09;;;;;;;;;;;;;;;20.91;29.38;98170.78;5109299;28;19927;-79
2024/02/03 01:32:35;;;;;;;;;;;;;;;20.21;30.36;98171.25;5095836;28;19927;-79
2024/02/03 01:35:01;;;;;;;;;;;;;;;21.04;29.00;98180.31;5105305;28;19927;-80
2024/02/03 01:37:28;;;;;;;;;;;;;;;22.27;27.27;98180.22;5101275;28;19968;-80
2024/02/03 01:39:54;;;;;;;;;;;;;;;20.41;31.52;98184.31;5099109;28;19920;-79
2024/02/03 01:42:20;;;;;;;;;;;;;;;20.20;31.87;98187.16;5103023;28;19931;-80
2024/02/03 01:44:46;;;;;;;;;;;;;;;19.83;31.15;98175.78;5104843;28;19920;-80
2024/02/03 01:47:13;;;;;;;;;;;;;;;19.78;31.78;98173.41;5106855;27;19924;-80
2024/02/03 01:49:39;;;;;;;;;;;;;;;21.76;28.29;98170.84;5110765;27;20298;-80
2024/02/03 01:52:06;;;;;;;;;;;;;;;20.94;30.01;98160.81;5104336;27;19939;-80
2024/02/03 01:54:32;;;;;;;;;;;;;;;20.74;30.20;98166.16;5109858;27;19975;-80
2024/02/03 01:56:59;;;;;;;;;;;;;;;20.68;31.41;98165.00;5106756;27;19920;-80
2024/02/03 01:59:27;;;;;;;;;;;;;;;20.14;30.89;98137.81;5114480;27;19935;-80
2024/02/03 02:01:56;;;;;;;;;;;;;;;20.10;32.84;98165.69;5108942;28;19923;-79
2024/02/03 02:04:29;;;;;;;;;;;;;;;19.66;31.94;98155.13;5109802;27;20185;-80
2024/02/03 02:06:56;;;;;;;;;;;;;;;19.71;31.25;98154.72;5091422;28;20265;-80
2024/02/03 02:09:22;;;;;;;;;;;;;;;18.68;34.08;98164.34;5105018;27;20404;-80
2024/02/03 02:11:49;;;;;;;;;;;;;;;19.88;31.45;98144.72;5103001;27;19967;-80
2024/02/03 02:14:15;;;;;;;;;;;;;;;19.41;31.94;98148.81;5102855;27;19926;-80
2024/02/03 02:16:41;;;;;;;;;;;;;;;20.43;30.60;98147.63;5109724;27;19920;-80
2024/02/03 02:19:07;;;;;;;;;;;;;;;20.43;30.54;98144.84;5111852;27;19931;-80
2024/02/03 02:21:33;;;;;;;;;;;;;;;19.83;33.26;98136.75;5107743;28;19928;-79
2024/02/03 02:23:59;;;;;;;;;;;;;;;21.09;32.44;98138.00;5111888;27;19932;-80
2024/02/03 02:26:25;;;;;;;;;;;;;;;20.51;31.38;98126.88;5111583;27;19926;-80
2024/02/03 02:28:51;;;;;;;;;;;;;;;21.32;29.00;98140.97;5106280;27;20379;-80
2024/02/03 02:31:17;;;;;;;;;;;;;;;21.63;29.03;98129.88;5104485;28;19924;-80
2024/02/03 02:33:43;;;;;;;;;;;;;;;22.45;27.50;98122.06;5091460;27;19928;-79
2024/02/03 02:36:10;;;;;;;;;;;;;;;21.50;28.49;98123.22;5088100;27;19927;-80
2024/02/03 02:38:36;;;;;;;;;;;;;;;20.52;30.64;98112.50;5109040;28;19920;-80
2024/02/03 02:41:02;;;;;;;;;;;;;;;20.66;30.04;98122.75;5112208;27;20285;-80
2024/02/03 02:43:28;;;;;;;;;;;;;;;19.79;33.14;98122.06;5114409;27;19919;-80
2024/02/03 02:45:54;;;;;;;;;;;;;;;20.67;29.77;98119.59;5103909;27;20349;-80
2024/02/03 02:48:20;;;;;;;;;;;;;;;20.51;30.22;98110.13;5110557;27;19920;-80
2024/02/03 02:50:46;;;;;;;;;;;;;;;20.47;29.88;98115.72;5114590;27;19927;-79
2024/02/03 02:53:12;;;;;;;;;;;;;;;19.91;30.64;98108.47;5109359;27;19924;-79
2024/02/03 02:55:39;;;;;;;;;;;;;;;20.30;30.61;98118.66;5108927;27;20404;-80
2024/02/03 02:58:06;;;;;;;;;;;;;;;20.53;29.88;98107.72;5106181;27;20388;-80
2024/02/03 03:00:32;;;;;;;;;;;;;;;21.17;28.82;98108.78;5105231;27;20665;-79
2024/02/03 03:02:58;;;;;;;;;;;;;;;21.75;28.12;98107.75;5107165;27;19920;-79
2024/02/03 03:05:24;;;;;;;;;;;;;;;22.25;27.01;98107.94;5109489;27;19919;-80
2024/02/03 03:07:50;;;;;;;;;;;;;;;21.17;32.05;98113.56;5104570;27;20012;-79
2024/02/03 03:10:16;;;;;;;;;;;;;;;22.44;26.87;98103.66;5092329;28;20393;-80
2024/02/03 03:12:42;;;;;;;;;;;;;;;22.06;27.08;98108.59;5108371;28;19965;-80
2024/02/03 03:15:09;;;;;;;;;;;;;;;21.54;29.07;98119.16;5111025;28;19920;-79
2024/02/03 03:17:35;;;;;;;;;;;;;;;20.75;30.05;98134.25;5112702;28;19920;-80
2024/02/03 03:20:01;;;;;;;;;;;;;;;20.12;31.72;98120.72;5102211;27;19966;-80
2024/02/03 03:22:27;;;;;;;;;;;;;;;21.74;27.61;98128.53;5108111;28;19924;-80
2024/02/03 03:24:53;;;;;;;;;;;;;;;22.08;27.66;98130.56;5104530;27;19978;-79
2024/02/03 03:27:19;;;;;;;;;;;;;;;22.31;27.09;98125.06;5108475;27;19920;-80
2024/02/03 03:29:47;;;;;;;;;;;;;;;21.12;29.55;98130.81;5105973;27;20468;-79
2024/02/03 03:32:13;;;;;;;;;;;;;;;20.82;31.13;98141.78;5106540;27;20404;-79
2024/02/03 03:34:40;;;;;;;;;;;;;;;20.77;31.34;98126.25;5102883;27;20319;-79
2024/02/03 03:37:06;;;;;;;;;;;;;;;19.99;30.86;98131.53;5096739;28;19916;-80
2024/02/03 03:39:32;;;;;;;;;;;;;;;20.26;30.99;98129.81;5108078;27;20385;-79
2024/02/03 03:41:58;;;;;;;;;;;;;;;19.61;31.74;98110.16;5108546;28;19920;-80
2024/02/03 03:44:24;;;;;;;;;;;;;;;20.02;31.54;98124.34;5113786;27;19928;-79
2024/02/03 03:46:50;;;;;;;;;;;;;;;19.58;32.54;98122.13;5109259;27;19927;-80
2024/02/03 03:49:16;;;;;;;;;;;;;;;19.80;31.61;98132.00;5106170;28;19919;-80
2024/02/03 03:51:42;;;;;;;;;;;;;;;19.80;33.38;98130.00;5104389;27;19922;-80
2024/02/03 03:54:08;;;;;;;;;;;;;;;20.50;30.74;98116.91;5100903;27;19931;-80
2024/02/03 03:56:34;;;;;;;;;;;;;;;19.26;34.50;98119.38;5083291;28;20297;-80
2024/02/03 03:59:01;;;;;;;;;;;;;;;18.83;35.29;98142.88;5099025;28;19920;-80
2024/02/03 04:01:27;;;;;;;;;;;;;;;19.45;33.13;98132.91;5111503;27;19943;-80
2024/02/03 04:03:53;;;;;;;;;;;;;;;19.24;33.17;98130.13;5105816;27;19923;-80
2024/02/03 04:06:19;;;;;;;;;;;;;;;19.91;33.67;98136.31;5112740;28;19925;-80
2024/02/03 04:08:45;;;;;;;;;;;;;;;19.65;33.79;98153.53;5105785;28;19989;-80
2024/02/03 04:11:11;;;;;;;;;;;;;;;19.85;31.68;98139.94;5109500;27;19924;-80
2024/02/03 04:13:41;;;;;;;;;;;;;;;19.84;33.62;98146.69;5103189;27;19931;-80
2024/02/03 04:16:07;;;;;;;;;;;;;;;19.76;34.02;98143.16;5108260;27;20018;-80
2024/02/03 04:18:33;;;;;;;;;;;;;;;20.08;31.07;98143.00;5100921;27;20336;-80
2024/02/03 04:20:59;;;;;;;;;;;;;;;21.04;30.14;98146.81;5104680;28;20304;-80
2024/02/03 04:23:25;;;;;;;;;;;;;;;19.41;33.54;98156.38;5104645;28;19982;-79
2024/02/03 04:25:51;;;;;;;;;;;;;;;19.84;32.00;98146.69;5105251;27;19980;-80
2024/02/03 04:28:17;;;;;;;;;;;;;;;20.66;30.86;98142.28;5094358;28;19916;-79
2024/02/03 04:30:43;;;;;;;;;;;;;;;19.20;34.58;98123.78;5108174;27;19931;-80
2024/02/03 04:33:09;;;;;;;;;;;;;;;20.69;30.55;98147.06;5102999;27;19920;-79
2024/02/03 04:35:35;;;;;;;;;;;;;;;19.77;32.69;98149.50;5114398;27;19938;-79
2024/02/03 04:38:02;;;;;;;;;;;;;;;20.45;30.97;98153.59;5113153;28;19920;-79
2024/02/03 04:40:28;;;;;;;;;;;;;;;20.54;31.50;98140.78;5103326;27;20351;-80
2024/02/03 04:42:55;;;;;;;;;;;;;;;19.54;33.52;98136.06;5104943;28;19923;-79
2024/02/03 04:45:21;;;;;;;;;;;;;;;20.14;31.44;98133.03;5108877;27;20300;-80
2024/02/03 04:47:47;;;;;;;;;;;;;;;20.02;36.25;98157.78;5104655;28;20402;-80
2024/02/03 04:50:13;;;;;;;;;;;;;;;21.05;30.94;98153.19;5114183;28;19924;-80
2024/02/03 04:52:40;;;;;;;;;;;;;;;20.88;30.44;98149.31;5106941;28;19969;-79
2024/02/03 04:55:06;;;;;;;;;;;;;;;20.17;32.03;98157.31;5102848;28;19920;-80
2024/02/03 04:57:32;;;;;;;;;;;;;;;20.65;30.47;98138.69;5108023;28;20331;-80
2024/02/03 04:59:58;;;;;;;;;;;;;;;19.04;34.46;98159.59;5108021;27;19927;-79
2024/02/03 05:02:24;;;;;;;;;;;;;;;19.23;36.25;98145.22;5096192;28;19920;-79
2024/02/03 05:04:50;;;;;;;;;;;;;;;19.74;32.37;98156.69;5108159;28;20040;-79
2024/02/03 05:07:16;;;;;;;;;;;;;;;19.53;32.86;98126.13;5105953;27;19920;-80
2024/02/03 05:09:42;;;;;;;;;;;;;;;19.03;33.82;98172.69;5109969;28;19935;-79
2024/02/03 05:12:08;;;;;;;;;;;;;;;20.06;32.33;98111.19;5108704;27;19924;-79
2024/02/03 05:14:34;;;;;;;;;;;;;;;18.69;38.89;98173.47;5098618;28;19923;-79
2024/02/03 05:17:01;;;;;;;;;;;;;;;19.84;32.86;98164.22;5107197;28;19999;-80
2024/02/03 05:19:27;;;;;;;;;;;;;;;21.83;29.77;98155.97;5100246;28;19967;-79
2024/02/03 05:21:53;;;;;;;;;;;;;;;20.77;30.96;98148.56;5102194;28;19930;-80
2024/02/03 05:24:19;;;;;;;;;;;;;;;19.24;34.95;98138.47;5112515;27;19930;-80
2024/02/03 05:26:45;;;;;;;;;;;;;;;18.88;36.15;98164.75;5093335;28;19986;-80
2024/02/03 05:29:12;;;;;;;;;;;;;;;19.76;36.54;98161.88;5113404;28;19919;-79
2024/02/03 05:31:38;;;;;;;;;;;;;;;20.12;33.95;98152.16;5097901;28;19920;-79
2024/02/03 05:34:04;;;;;;;;;;;;;;;20.57;30.91;98153.13;5121808;28;20018;-80
2024/02/03 05:36:30;;;;;;;;;;;;;;;20.20;33.44;98166.84;5099438;28;20004;-80
2024/02/03 05:38:56;;;;;;;;;;;;;;;19.90;34.84;98176.53;5093097;28;19924;-79
2024/02/03 05:41:22;;;;;;;;;;;;;;;21.88;30.41;98180.72;5103430;28;19974;-80
2024/02/03 05:43:48;;;;;;;;;;;;;;;22.69;27.94;98162.88;5099449;28;19920;-80
2024/02/03 05:46:14;;;;;;;;;;;;;;;20.09;33.77;98161.34;5103261;28;19974;-79
2024/02/03 05:48:40;;;;;;;;;;;;;;;19.88;32.33;98167.00;5110068;28;19919;-82
2024/02/03 05:51:06;;;;;;;;;;;;;;;19.07;39.38;98150.41;5108902;28;19927;-80
2024/02/03 05:53:35;;;;;;;;;;;;;;;20.34;31.79;98158.44;5108902;28;20254;-79
2024/02/03 05:56:04;;;;;;;;;;;;;;;21.21;29.85;98153.44;5102624;28;19938;-79
2024/02/03 05:58:30;;;;;;;;;;;;;;;20.89;32.84;98173.22;5106516;28;19977;-80
2024/02/03 06:00:56;;;;;;;;;;;;;;;20.93;30.78;98148.88;5104362;28;19916;-80
2024/02/03 06:03:23;;;;;;;;;;;;;;;22.25;28.56;98152.69;5104807;28;20396;-80
2024/02/03 06:05:49;;;;;;;;;;;;;;;21.15;31.52;98152.28;5099908;28;19923;-80
2024/02/03 06:08:15;;;;;;;;;;;;;;;20.83;31.53;98174.88;5097089;28;20414;-80
2024/02/03 06:10:41;;;;;;;;;;;;;;;19.46;33.48;98169.91;5107420;28;19939;-80
2024/02/03 06:13:07;;;;;;;;;;;;;;;19.52;33.31;98179.41;5097791;28;19927;-83
2024/02/03 06:15:34;;;;;;;;;;;;;;;20.92;31.29;98191.13;5094263;28;20008;-81
2024/02/03 06:18:00;;;;;;;;;;;;;;;20.57;31.19;98184.59;5097958;28;19916;-80
2024/02/03 06:20:26;;;;;;;;;;;;;;;20.49;31.66;98157.19;5112650;28;19920;-80
2024/02/03 06:22:52;;;;;;;;;;;;;;;19.69;33.44;98192.53;5107350;28;19931;-80
2024/02/03 06:25:18;;;;;;;;;;;;;;;20.99;31.53;98186.31;5106541;28;19920;-80
2024/02/03 06:27:44;;;;;;;;;;;;;;;20.33;31.44;98174.38;5082648;28;20017;-81
2024/02/03 06:30:10;;;;;;;;;;;;;;;18.99;38.50;98180.25;5102915;28;19920;-81
2024/02/03 06:32:37;;;;;;;;;;;;;;;19.88;32.79;98172.56;5098947;27;19923;-81
2024/02/03 06:35:03;;;;;;;;;;;;;;;20.87;31.21;98175.63;5108611;27;19920;-82
2024/02/03 06:37:29;;;;;;;;;;;;;;;21.32;30.23;98168.09;5102840;27;19972;-82
2024/02/03 06:39:55;;;;;;;;;;;;;;;21.04;30.52;98180.31;5104836;28;19924;-81
2024/02/03 06:42:21;;;;;;;;;;;;;;;21.20;30.36;98158.22;5104456;27;19998;-82
2024/02/03 06:44:47;;;;;;;;;;;;;;;20.16;32.51;98180.03;5111298;28;19924;-80
2024/02/03 06:47:13;;;;;;;;;;;;;;;20.33;32.83;98184.72;5107899;27;19921;-81
2024/02/03 06:49:39;;;;;;;;;;;;;;;21.31;30.40;98178.47;5105203;27;19927;-81
2024/02/03 06:52:05;;;;;;;;;;;;;;;20.26;32.43;98162.47;5110755;27;19920;-81
2024/02/03 06:54:31;;;;;;;;;;;;;;;20.81;31.28;98173.69;5112228;27;19928;-82
2024/02/03 06:56:58;;;;;;;;;;;;;;;20.73;32.42;98175.72;5106441;27;19931;-81
2024/02/03 06:59:24;;;;;;;;;;;;;;;20.11;35.21;98183.22;5104452;27;19922;-81
2024/02/03 07:01:50;;;;;;;;;;;;;;;21.16;30.47;98176.22;5108369;27;19915;-82
2024/02/03 07:04:16;;;;;;;;;;;;;;;20.93;32.45;98176.00;5109246;27;19941;-81
2024/02/03 07:06:43;;;;;;;;;;;;;;;21.93;29.29;98175.47;5109465;27;19920;-80
2024/02/03 07:09:09;;;;;;;;;;;;;;;20.60;32.34;98181.00;5111962;27;20014;-80
2024/02/03 07:11:35;;;;;;;;;;;;;;;20.45;32.03;98196.22;5107353;27;20475;-80
2024/02/03 07:14:01;;;;;;;;;;;;;;;21.15;30.91;98189.38;5103750;27;20022;-80
2024/02/03 07:16:27;;;;;;;;;;;;;;;20.53;32.43;98188.63;5107573;28;19920;-81
2024/02/03 07:18:53;;;;;;;;;;;;;;;20.89;31.04;98173.22;5103851;28;19924;-81
2024/02/03 07:21:19;;;;;;;;;;;;;;;20.37;32.43;98180.75;5101899;27;19931;-80
2024/02/03 07:23:45;;;;;;;;;;;;;;;20.76;32.99;98191.66;5106081;27;19946;-81
2024/02/03 07:26:11;;;;;;;;;;;;;;;21.37;31.27;98187.22;5093613;28;19924;-80
2024/02/03 07:28:37;;;;;;;;;;;;;;;20.87;33.40;98206.31;5096500;27;20393;-80
2024/02/03 07:31:03;;;;;;;;;;;;;;;21.06;31.40;98186.28;5087124;28;19924;-80
2024/02/03 07:33:29;;;;;;;;;;;;;;;20.94;31.02;98191.50;5106067;27;19920;-80
2024/02/03 07:35:55;;;;;;;;;;;;;;;19.75;33.12;98171.41;5107619;27;19939;-81
2024/02/03 07:38:22;;;;;;;;;;;;;;;20.74;34.41;98187.69;5109820;27;20292;-81
2024/02/03 07:40:48;;;;;;;;;;;;;;;21.29;30.83;98186.47;5105257;27;20389;-80
2024/02/03 07:43:14;;;;;;;;;;;;;;;22.10;29.19;98170.84;5111584;27;19966;-81
2024/02/03 07:45:40;;;;;;;;;;;;;;;21.94;29.55;98182.63;5112150;27;19920;-81
2024/02/03 07:48:06;;;;;;;;;;;;;;;20.90;31.94;98190.75;5110274;27;20020;-80
2024/02/03 07:50:32;;;;;;;;;;;;;;;22.26;32.32;98170.25;5115945;27;19948;-80
2024/02/03 07:52:58;;;;;;;;;;;;;;;21.72;30.18;98188.84;5100548;27;19955;-80
2024/02/03 07:55:24;;;;;;;;;;;;;;;21.34;30.57;98186.03;5096730;27;19957;-81
2024/02/03 07:57:50;;;;;;;;;;;;;;;21.44;31.69;98194.72;5101840;28;19935;-80
2024/02/03 08:00:16;;;;;;;;;;;;;;;21.42;30.36;98177.59;5103406;27;20058;-82
2024/02/03 08:02:42;;;;;;;;;;;;;;;20.56;32.13;98176.66;5108240;27;19927;-80
2024/02/03 08:05:08;;;;;;;;;;;;;;;21.76;30.19;98176.41;5105790;27;19924;-79
2024/02/03 08:07:36;;;;;;;;;;;;;;;21.31;30.99;98167.28;5110845;27;19926;-79
2024/02/03 08:10:02;;;;;;;;;;;;;;;21.15;31.39;98191.38;5106746;27;20529;-79
2024/02/03 08:12:28;;;;;;;;;;;;;;;21.52;31.00;98182.28;5102765;28;19928;-81
2024/02/03 08:14:54;;;;;;;;;;;;;;;20.71;34.96;98171.75;5105086;27;19920;-80
2024/02/03 08:17:20;;;;;;;;;;;;;;;20.54;32.56;98165.09;5101734;27;19942;-81
2024/02/03 08:19:46;;;;;;;;;;;;;;;21.66;31.10;98166.16;5104815;27;19924;-80
2024/02/03 08:22:13;;;;;;;;;;;;;;;21.82;30.17;98171.19;5081837;28;19920;-81
2024/02/03 08:24:39;;;;;;;;;;;;;;;20.60;33.24;98178.22;5102191;27;20419;-80
2024/02/03 08:27:05;;;;;;;;;;;;;;;22.59;29.36;98175.78;5110415;27;19955;-81
2024/02/03 08:29:31;;;;;;;;;;;;;;;21.07;31.73;98173.13;5102497;27;19974;-80
2024/02/03 08:31:57;;;;;;;;;;;;;;;20.56;32.78;98171.06;5103809;27;19923;-81
2024/02/03 08:34:23;;;;;;;;;;;;;;;21.47;32.54;98185.53;5109877;27;19927;-80
2024/02/03 08:36:49;;;;;;;;;;;;;;;22.07;30.78;98196.06;5102975;28;19928;-81
2024/02/03 08:39:15;;;;;;;;;;;;;;;21.06;32.15;98183.47;5106548;28;20336;-81
2024/02/03 08:41:41;;;;;;;;;;;;;;;21.70;32.52;98194.06;5104381;28;19920;-81
2024/02/03 08:44:08;;;;;;;;;;;;;;;22.16;29.63;98177.56;5102566;28;19963;-80
2024/02/03 08:46:34;;;;;;;;;;;;;;;21.23;31.82;98192.91;5105640;28;19920;-81
2024/02/03 08:49:00;;;;;;;;;;;;;;;22.11;32.56;98192.03;5110191;28;19919;-81
2024/02/03 08:51:26;;;;;;;;;;;;;;;20.54;32.79;98179.03;5112842;28;19916;-82
2024/02/03 08:53:55;;;;;;;;;;;;;;;20.66;32.74;98204.47;5093232;28;21608;-81
2024/02/03 08:56:21;;;;;;;;;;;;;;;21.73;34.51;98207.19;5094500;28;20372;-80
2024/02/03 08:58:47;;;;;;;;;;;;;;;20.66;32.97;98200.88;5096394;28;20337;-81
2024/02/03 09:01:13;;;;;;;;;;;;;;;22.37;30.63;98165.31;5097091;28;19927;-81
2024/02/03 09:03:39;;;;;;;;;;;;;;;22.28;31.16;98210.59;5110646;28;19923;-80
2024/02/03 09:06:06;;;;;;;;;;;;;;;21.85;30.81;98206.69;5104960;28;19954;-80
2024/02/03 09:08:32;;;;;;;;;;;;;;;22.17;30.34;98209.91;5110847;28;19926;-81
2024/02/03 09:10:58;;;;;;;;;;;;;;;22.67;30.04;98210.09;5097864;27;19915;-80
2024/02/03 09:13:24;;;;;;;;;;;;;;;22.53;29.63;98197.06;5098197;28;19924;-80
2024/02/03 09:15:50;;;;;;;;;;;;;;;22.48;29.87;98199.53;5095840;27;19965;-81
2024/02/03 09:18:16;;;;;;;;;;;;;;;23.94;27.83;98199.56;5094312;28;19920;-81
2024/02/03 09:20:42;;;;;;;;;;;;;;;24.59;26.56;98181.81;5106504;28;19939;-81
2024/02/03 09:23:08;;;;;;;;;;;;;;;23.14;28.53;98180.97;5109805;28;19924;-81
2024/02/03 09:25:34;;;;;;;;;;;;;;;22.90;28.99;98196.16;5106544;28;19955;-81
2024/02/03 09:28:00;;;;;;;;;;;;;;;23.75;27.82;98181.50;5105631;27;19927;-81
2024/02/03 09:30:26;;;;;;;;;;;;;;;22.86;30.45;98189.81;5099494;28;19931;-81
2024/02/03 09:32:53;;;;;;;;;;;;;;;23.78;27.56;98174.25;5102003;28;19935;-81
2024/02/03 09:35:19;;;;;;;;;;;;;;;22.81;30.42;98176.28;5105675;28;19919;-81
2024/02/03 09:37:45;;;;;;;;;;;;;;;22.86;29.38;98181.41;5099295;28;19942;-82
2024/02/03 09:40:17;;;;;;;;;;;;;;;23.43;29.24;98181.31;5076867;28;19928;-83
2024/02/03 09:42:47;;;;;;;;;;;;;;;21.69;33.26;98186.88;5096312;28;19921;-83
2024/02/03 09:45:13;;;;;;;;;;;;;;;22.95;31.13;98178.06;5103787;28;19920;-83
2024/02/03 09:47:39;;;;;;;;;;;;;;;22.83;30.01;98190.66;5113740;28;20372;-82
2024/02/03 09:50:06;;;;;;;;;;;;;;;22.34;30.02;98191.31;5101329;28;19963;-82
2024/02/03 09:52:33;;;;;;;;;;;;;;;22.26;29.95;98204.63;5104706;28;20353;-82
2024/02/03 09:54:59;;;;;;;;;;;;;;;21.26;35.71;98186.53;5097721;28;20018;-82
2024/02/03 09:57:26;;;;;;;;;;;;;;;21.37;32.37;98192.00;5094916;28;19965;-82
2024/02/03 09:59:52;;;;;;;;;;;;;;;21.49;32.56;98188.69;5100801;28;20359;-83
2024/02/03 10:02:18;;;;;;;;;;;;;;;21.92;31.84;98187.84;5100666;28;19919;-82
2024/02/03 10:04:45;;;;;;;;;;;;;;;20.88;32.60;98196.75;5101655;27;19920;-81
2024/02/03 10:07:16;;;;;;;;;;;;;;;21.05;32.22;98187.47;5101713;27;19920;-80
2024/02/03 10:09:42;;;;;;;;;;;;;;;21.78;34.14;98189.97;5104741;27;19924;-82
2024/02/03 10:12:18;;;;;;;;;;;;;;;22.13;30.67;98186.78;5082339;28;19931;-81
2024/02/03 10:14:44;;;;;;;;;;;;;;;22.75;31.45;98169.59;5101580;27;19931;-80
2024/02/03 10:17:10;;;;;;;;;;;;;;;23.66;28.27;98167.28;5102384;27;19922;-81
2024/02/03 10:19:36;;;;;;;;;;;;;;;23.02;29.43;98177.97;5103005;27;19920;-81
2024/02/03 10:22:03;;;;;;;;;;;;;;;21.58;34.08;98178.63;5103485;27;19923;-81
2024/02/03 10:24:29;;;;;;;;;;;;;;;22.56;30.13;98170.25;5108306;28;19927;-81
2024/02/03 10:27:01;;;;;;;;;;;;;;;22.97;30.04;98170.84;5102617;28;20006;-80
2024/02/03 10:29:28;;;;;;;;;;;;;;;23.30;31.36;98152.28;5104115;27;20380;-80
2024/02/03 10:31:54;;;;;;;;;;;;;;;23.90;28.20;98163.19;5100688;27;20039;-80
2024/02/03 10:34:20;;;;;;;;;;;;;;;23.57;28.45;98160.63;5109117;28;19919;-80
2024/02/03 10:36:46;;;;;;;;;;;;;;;25.19;26.23;98169.16;5083829;28;19954;-80
2024/02/03 10:39:14;;;;;;;;;;;;;;;23.41;31.77;98164.09;5104798;27;20292;-79
2024/02/03 10:41:41;;;;;;;;;;;;;;;24.53;27.27;98158.25;5104722;28;20109;-81
2024/02/03 10:44:07;;;;;;;;;;;;;;;23.90;29.54;98153.97;5102331;27;19967;-79
2024/02/03 10:46:42;;;;;;;;;;;;;;;23.80;27.90;98158.59;5108086;28;20300;-80
2024/02/03 10:49:15;;;;;;;;;;;;;;;24.28;27.51;98162.84;5115408;28;20376;-79
2024/02/03 10:51:43;;;;;;;;;;;;;;;23.16;29.54;98155.31;5113692;27;19919;-79
2024/02/03 10:54:17;;;;;;;;;;;;;;;22.64;30.84;98155.75;5105575;27;20014;-79
2024/02/03 10:56:45;;;;;;;;;;;;;;;22.78;29.46;98134.38;5085297;27;20053;-79
2024/02/03 10:59:18;;;;;;;;;;;;;;;23.68;27.52;98147.22;5100714;27;19966;-79
2024/02/03 11:01:44;;;;;;;;;;;;;;;23.72;28.14;98145.13;5103873;28;19931;-79
2024/02/03 11:04:12;;;;;;;;;;;;;;;23.27;29.04;98142.72;5103162;27;19973;-79
2024/02/03 11:06:38;;;;;;;;;;;;;;;24.12;27.58;98149.53;5111229;28;20446;-79
2024/02/03 11:09:13;;;;;;;;;;;;;;;24.78;26.75;98140.88;5114814;28;20001;-80
2024/02/03 11:11:41;;;;;;;;;;;;;;;25.47;25.55;98142.38;5113136;28;20350;-80
2024/02/03 11:14:10;;;;;;;;;;;;;;;24.87;27.11;98140.25;5100667;28;19916;-81
2024/02/03 11:16:36;;;;;;;;;;;;;;;23.90;28.12;98162.38;5098840;28;19920;-80
2024/02/03 11:19:02;;;;;;;;;;;;;;;23.71;28.06;98147.13;5095725;28;20027;-81
2024/02/03 11:21:28;;;;;;;;;;;;;;;22.90;29.81;98156.16;5099432;28;19924;-81
2024/02/03 11:23:54;;;;;;;;;;;;;;;22.90;29.42;98145.75;5106169;28;19932;-80
2024/02/03 11:26:21;;;;;;;;;;;;;;;22.71;33.01;98162.47;5097890;27;19942;-81
2024/02/03 11:28:47;;;;;;;;;;;;;;;22.13;31.23;98150.44;5111513;28;20006;-81
2024/02/03 11:31:16;;;;;;;;;;;;;;;23.22;31.32;98148.03;5106318;27;20496;-81
2024/02/03 11:33:43;;;;;;;;;;;;;;;23.31;29.58;98134.25;5111434;27;19983;-81
2024/02/03 11:36:09;;;;;;;;;;;;;;;23.59;28.96;98132.97;5101855;28;19920;-80
2024/02/03 11:38:42;;;;;;;;;;;;;;;21.30;32.97;98135.00;5108096;28;19920;-81
2024/02/03 11:41:08;;;;;;;;;;;;;;;22.41;33.56;98118.50;5103326;28;20428;-81
2024/02/03 11:43:35;;;;;;;;;;;;;;;23.08;30.47;98137.06;5095617;27;19970;-80
2024/02/03 11:46:05;;;;;;;;;;;;;;;22.94;30.44;98126.88;5084464;28;19942;-81
2024/02/03 11:48:31;;;;;;;;;;;;;;;22.62;30.41;98118.19;5088824;28;19916;-81
2024/02/03 11:50:57;;;;;;;;;;;;;;;22.31;35.96;98123.03;5084812;28;19921;-82
2024/02/03 11:53:24;;;;;;;;;;;;;;;22.56;31.39;98123.47;5078815;28;19936;-81
2024/02/03 11:55:50;;;;;;;;;;;;;;;21.70;34.08;98127.00;5083393;28;19921;-81
2024/02/03 11:58:16;;;;;;;;;;;;;;;23.44;29.73;98112.03;5088710;28;20289;-80
2024/02/03 12:00:42;;;;;;;;;;;;;;;22.35;31.10;98114.59;5084788;28;19967;-81
2024/02/03 12:03:09;;;;;;;;;;;;;;;23.16;30.91;98132.91;5094686;28;19920;-80
2024/02/03 12:05:35;;;;;;;;;;;;;;;24.04;29.86;98115.22;5093882;28;20023;-81
2024/02/03 12:08:04;;;;;;;;;;;;;;;22.66;34.55;98125.31;5083576;28;19978;-81
2024/02/03 12:10:31;;;;;;;;;;;;;;;22.45;31.51;98133.25;5094197;28;19916;-81
2024/02/03 12:13:01;;;;;;;;;;;;;;;22.95;30.36;98122.06;5093258;28;19917;-81
2024/02/03 12:15:27;;;;;;;;;;;;;;;22.74;31.50;98128.00;5074241;28;19927;-81
2024/02/03 12:17:57;;;;;;;;;;;;;;;23.40;31.28;98119.72;5088114;28;20035;-82
2024/02/03 12:20:23;;;;;;;;;;;;;;;22.63;31.03;98125.41;5079849;28;20015;-80
2024/02/03 12:22:51;;;;;;;;;;;;;;;21.99;32.82;98123.47;5084039;28;19924;-81
2024/02/03 12:25:17;;;;;;;;;;;;;;;22.71;31.29;98121.25;5080505;28;19920;-81
2024/02/03 12:27:44;;;;;;;;;;;;;;;23.39;29.91;98132.94;5079408;28;19924;-81
2024/02/03 12:30:17;;;;;;;;;;;;;;;22.43;34.18;98141.25;5090341;28;19965;-81
2024/02/03 12:32:43;;;;;;;;;;;;;;;23.72;30.63;98137.50;5076060;28;19959;-81
2024/02/03 12:35:09;;;;;;;;;;;;;;;23.84;29.96;98136.88;5090941;28;20404;-81
2024/02/03 12:37:36;;;;;;;;;;;;;;;22.52;34.84;98144.34;5082266;28;20018;-81
2024/02/03 12:40:02;;;;;;;;;;;;;;;23.58;30.71;98149.00;5076316;28;19920;-80
2024/02/03 12:42:29;;;;;;;;;;;;;;;22.94;31.28;98154.09;5072908;27;19927;-81
2024/02/03 12:44:55;;;;;;;;;;;;;;;21.91;36.33;98151.94;5095588;27;19979;-82